createdAt,value
2023-01-09T00:00:51.479Z,4.46
2023-01-09T00:03:54.058Z,4.40
2023-01-09T00:06:56.634Z,4.51
2023-01-09T00:09:59.344Z,4.38
2023-01-09T00:13:02.208Z,4.47
2023-01-09T00:16:06.685Z,4.43
2023-01-09T00:19:09.903Z,4.39
2023-01-09T00:22:12.423Z,4.42
2023-01-09T00:25:15.134Z,4.38
2023-01-09T00:28:17.632Z,4.52
2023-01-09T00:31:20.816Z,4.53
2023-01-09T00:34:23.908Z,4.51
2023-01-09T00:37:26.526Z,4.60
2023-01-09T00:40:29.034Z,4.73
2023-01-09T00:43:33.893Z,4.88
2023-01-09T00:46:39.752Z,5.04
2023-01-09T00:49:43.095Z,5.09
2023-01-09T00:52:46.731Z,5.25
2023-01-09T00:55:49.549Z,5.28
2023-01-09T00:58:52.526Z,5.21
2023-01-09T01:01:55.210Z,5.18
2023-01-09T01:05:16.432Z,5.21
2023-01-09T01:08:19.684Z,5.27
2023-01-09T01:11:22.882Z,5.30
2023-01-09T01:14:25.335Z,5.15
2023-01-09T01:17:27.891Z,5.33
2023-01-09T01:20:30.444Z,5.46
2023-01-09T01:23:32.914Z,5.48
2023-01-09T01:26:35.412Z,5.46
2023-01-09T01:29:37.934Z,5.56
2023-01-09T01:32:40.923Z,5.57
2023-01-09T01:35:43.423Z,5.52
2023-01-09T01:38:47.082Z,5.44
2023-01-09T01:41:49.595Z,5.42
2023-01-09T01:44:55.128Z,5.27
2023-01-09T01:48:03.212Z,5.25
2023-01-09T01:51:06.409Z,5.37
2023-01-09T01:54:15.184Z,5.22
2023-01-09T01:57:17.799Z,5.00
2023-01-09T02:00:23.988Z,5.21
2023-01-09T02:03:28.404Z,5.30
2023-01-09T02:06:31.907Z,5.28
2023-01-09T02:09:34.643Z,5.06
2023-01-09T02:12:37.096Z,5.05
2023-01-09T02:16:03.391Z,5.07
2023-01-09T02:19:19.031Z,5.19
2023-01-09T02:25:54.629Z,5.52
2023-01-09T02:29:31.056Z,5.63
2023-01-09T02:32:36.770Z,5.72
2023-01-09T02:36:03.940Z,5.80
2023-01-09T02:39:12.080Z,5.87
2023-01-09T02:42:19.242Z,5.93
2023-01-09T02:45:21.585Z,5.98
2023-01-09T02:48:24.080Z,5.99
2023-01-09T02:51:44.689Z,6.10
2023-01-09T02:54:52.178Z,6.12
2023-01-09T02:58:17.569Z,6.16
2023-01-09T03:01:33.398Z,6.17
2023-01-09T03:04:53.748Z,6.20
2023-01-09T03:08:02.928Z,6.22
2023-01-09T03:11:07.831Z,6.25
2023-01-09T03:14:15.713Z,6.27
2023-01-09T03:17:38.965Z,6.28
2023-01-09T03:20:42.566Z,6.32
2023-01-09T03:23:54.885Z,6.37
2023-01-09T03:26:57.419Z,6.36
2023-01-09T03:29:59.948Z,6.38
2023-01-09T03:33:02.688Z,6.29
2023-01-09T03:36:05.381Z,6.31
2023-01-09T03:39:07.886Z,6.31
2023-01-09T03:42:10.355Z,6.26
2023-01-09T03:45:13.081Z,6.29
2023-01-09T03:48:15.539Z,6.34
2023-01-09T03:51:18.033Z,6.39
2023-01-09T03:54:20.563Z,6.33
2023-01-09T03:57:24.402Z,6.40
2023-01-09T04:00:26.975Z,6.32
2023-01-09T04:03:29.638Z,6.14
2023-01-09T04:06:32.193Z,6.08
2023-01-09T04:09:34.734Z,6.01
2023-01-09T04:12:37.252Z,5.98
2023-01-09T04:15:39.863Z,5.91
2023-01-09T04:18:42.422Z,5.84
2023-01-09T04:21:44.893Z,5.89
2023-01-09T04:24:47.388Z,5.93
2023-01-09T04:27:49.907Z,6.02
2023-01-09T04:30:52.444Z,6.08
2023-01-09T04:33:54.953Z,6.19
2023-01-09T04:36:57.691Z,6.23
2023-01-09T04:40:00.158Z,6.18
2023-01-09T04:43:02.662Z,6.15
2023-01-09T04:46:05.372Z,6.16
2023-01-09T04:49:08.005Z,6.08
2023-01-09T04:52:10.647Z,5.99
2023-01-09T04:55:13.203Z,5.97
2023-01-09T04:58:15.733Z,5.97
2023-01-09T05:01:18.418Z,6.00
2023-01-09T05:04:21.097Z,5.94
2023-01-09T05:07:23.658Z,6.01
2023-01-09T05:10:26.201Z,6.09
2023-01-09T05:13:28.727Z,6.24
2023-01-09T05:16:32.208Z,6.30
2023-01-09T05:19:34.843Z,6.36
2023-01-09T05:22:37.373Z,6.41
2023-01-09T05:25:39.853Z,6.43
2023-01-09T05:28:42.399Z,6.50
2023-01-09T05:31:44.966Z,6.50
2023-01-09T05:34:47.587Z,6.50
2023-01-09T05:37:50.116Z,6.54
2023-01-09T05:40:52.742Z,6.54
2023-01-09T05:43:55.289Z,6.61
2023-01-09T05:46:57.839Z,6.63
2023-01-09T05:50:00.456Z,6.71
2023-01-09T05:53:03.165Z,6.71
2023-01-09T05:56:05.958Z,6.75
2023-01-09T05:59:08.616Z,6.82
2023-01-09T06:02:11.371Z,6.85
2023-01-09T06:05:14.091Z,6.89
2023-01-09T06:08:16.599Z,6.94
2023-01-09T06:11:19.099Z,6.99
2023-01-09T06:14:23.894Z,6.93
2023-01-09T06:17:26.405Z,7.03
2023-01-09T06:20:29.061Z,6.98
2023-01-09T06:23:31.624Z,6.93
2023-01-09T06:26:34.308Z,6.91
2023-01-09T06:29:36.829Z,6.92
2023-01-09T06:32:39.365Z,6.92
2023-01-09T06:35:41.853Z,6.91
2023-01-09T06:38:44.436Z,6.91
2023-01-09T06:41:48.701Z,6.95
2023-01-09T06:44:51.374Z,6.97
2023-01-09T06:47:54.091Z,6.97
2023-01-09T06:50:56.626Z,6.92
2023-01-09T06:53:59.119Z,6.94
2023-01-09T06:57:01.917Z,6.85
2023-01-09T07:00:05.073Z,6.92
2023-01-09T07:03:08.001Z,6.95
2023-01-09T07:06:10.590Z,6.83
2023-01-09T07:09:13.662Z,6.94
2023-01-09T07:12:16.255Z,6.91
2023-01-09T07:15:19.009Z,6.89
2023-01-09T07:18:21.574Z,6.85
2023-01-09T07:21:24.116Z,6.81
2023-01-09T07:24:26.684Z,6.88
2023-01-09T07:27:29.238Z,6.90
2023-01-09T07:30:33.616Z,6.97
2023-01-09T07:33:36.180Z,6.96
2023-01-09T07:36:38.687Z,7.01
2023-01-09T07:39:41.228Z,7.04
2023-01-09T07:42:43.836Z,7.00
2023-01-09T07:45:46.753Z,7.02
2023-01-09T07:48:52.356Z,7.05
2023-01-09T07:51:57.315Z,7.05
2023-01-09T07:54:59.861Z,7.02
2023-01-09T07:58:02.416Z,7.00
2023-01-09T08:01:05.231Z,7.08
2023-01-09T08:04:07.948Z,7.12
2023-01-09T08:07:10.565Z,7.04
2023-01-09T08:10:13.411Z,7.12
2023-01-09T08:13:16.028Z,7.10
2023-01-09T08:16:18.821Z,7.11
2023-01-09T08:19:21.574Z,7.13
2023-01-09T08:22:24.752Z,7.18
2023-01-09T08:25:27.637Z,7.04
2023-01-09T08:28:30.167Z,7.12
2023-01-09T08:31:32.887Z,7.04
2023-01-09T08:34:35.975Z,7.02
2023-01-09T08:37:38.673Z,7.06
2023-01-09T08:40:41.358Z,7.11
2023-01-09T08:44:02.506Z,7.16
2023-01-09T08:47:08.160Z,7.09
2023-01-09T08:50:10.839Z,7.06
2023-01-09T08:53:13.890Z,7.18
2023-01-09T08:56:16.530Z,7.29
2023-01-09T08:59:19.274Z,7.23
2023-01-09T09:02:22.198Z,7.30
2023-01-09T09:05:26.179Z,7.13
2023-01-09T09:08:28.961Z,7.26
2023-01-09T09:11:31.558Z,7.28
2023-01-09T09:14:52.859Z,7.27
2023-01-09T09:18:03.966Z,7.25
2023-01-09T09:21:06.562Z,7.41
2023-01-09T09:24:09.297Z,7.44
2023-01-09T09:27:11.887Z,7.36
2023-01-09T09:30:16.263Z,7.38
2023-01-09T09:33:18.822Z,7.41
2023-01-09T09:36:21.458Z,7.48
2023-01-09T09:39:23.959Z,7.46
2023-01-09T09:43:07.602Z,7.36
2023-01-09T09:46:22.185Z,7.30
2023-01-09T09:49:27.610Z,7.32
2023-01-09T09:52:47.342Z,7.35
2023-01-09T09:55:50.270Z,7.40
2023-01-09T09:59:11.257Z,7.44
2023-01-09T10:02:31.383Z,7.41
2023-01-09T10:05:37.219Z,7.49
2023-01-09T10:08:48.803Z,7.50
2023-01-09T10:12:11.047Z,7.57
2023-01-09T10:15:19.530Z,7.69
2023-01-09T10:18:33.012Z,7.69
2023-01-09T10:21:44.646Z,7.68
2023-01-09T10:24:51.110Z,7.71
2023-01-09T10:27:59.692Z,7.80
2023-01-09T10:31:11.767Z,7.78
2023-01-09T10:34:22.536Z,7.85
2023-01-09T10:37:29.716Z,7.79
2023-01-09T10:40:40.318Z,7.82
2023-01-09T10:43:47.067Z,7.80
2023-01-09T10:46:54.023Z,7.79
2023-01-09T10:49:57.341Z,7.83
2023-01-09T10:53:02.468Z,7.88
2023-01-09T10:56:15.675Z,7.90
2023-01-09T10:59:18.218Z,7.82
2023-01-09T11:02:32.527Z,7.79
2023-01-09T11:05:36.994Z,7.86
2023-01-09T11:08:42.320Z,7.99
2023-01-09T11:11:45.662Z,7.89
2023-01-09T11:14:48.256Z,7.96
2023-01-09T11:17:51.923Z,7.85
2023-01-09T11:20:54.675Z,7.92
2023-01-09T11:24:01.029Z,7.89
2023-01-09T11:27:12.869Z,7.85
2023-01-09T11:30:24.309Z,7.98
2023-01-09T11:33:30.540Z,7.95
2023-01-09T11:36:33.362Z,8.06
2023-01-09T11:39:41.526Z,8.11
2023-01-09T11:43:02.158Z,8.11
2023-01-09T11:46:07.136Z,8.18
2023-01-09T11:49:15.538Z,8.09
2023-01-09T11:52:20.761Z,8.15
2023-01-09T11:55:29.249Z,8.23
2023-01-09T11:58:34.295Z,8.26
2023-01-09T12:01:42.664Z,8.21
2023-01-09T12:04:54.496Z,8.25
2023-01-09T12:08:07.099Z,8.29
2023-01-09T12:11:12.808Z,8.28
2023-01-09T12:14:15.318Z,8.35
2023-01-09T12:17:27.014Z,8.32
2023-01-09T12:20:41.817Z,8.28
2023-01-09T12:24:09.277Z,8.33
2023-01-09T12:27:19.613Z,8.40
2023-01-09T12:30:34.392Z,8.39
2023-01-09T12:33:55.199Z,8.20
2023-01-09T12:37:25.481Z,8.26
2023-01-09T12:40:28.006Z,8.30
2023-01-09T12:43:33.656Z,8.42
2023-01-09T12:47:04.875Z,8.20
2023-01-09T12:50:20.097Z,8.01
2023-01-09T12:53:50.094Z,8.10
2023-01-09T12:56:58.659Z,8.12
2023-01-09T13:00:15.484Z,8.02
2023-01-09T13:03:21.477Z,7.95
2023-01-09T13:06:24.776Z,7.89
2023-01-09T13:09:33.415Z,7.95
2023-01-09T13:12:39.932Z,8.08
2023-01-09T13:15:45.371Z,7.97
2023-01-09T13:18:59.917Z,8.06
2023-01-09T13:22:04.454Z,8.14
2023-01-09T13:25:16.340Z,8.07
2023-01-09T13:28:22.310Z,8.02
2023-01-09T13:31:38.155Z,8.03
2023-01-09T13:34:41.801Z,8.01
2023-01-09T13:37:53.385Z,7.95
2023-01-09T13:41:27.111Z,8.04
2023-01-09T13:44:29.782Z,8.06
2023-01-09T13:47:32.539Z,8.11
2023-01-09T13:50:35.803Z,8.14
2023-01-09T13:53:41.103Z,7.99
2023-01-09T13:57:17.194Z,7.91
2023-01-09T14:00:19.769Z,7.81
2023-01-09T14:03:34.140Z,7.86
2023-01-09T14:06:36.998Z,7.86
2023-01-09T14:09:47.184Z,7.91
2023-01-09T14:12:51.442Z,7.94
2023-01-09T14:16:07.401Z,7.87
2023-01-09T14:19:15.909Z,7.74
2023-01-09T14:22:31.528Z,7.58
2023-01-09T14:25:34.463Z,7.42
2023-01-09T14:28:37.225Z,7.24
2023-01-09T14:31:39.843Z,7.24
2023-01-09T14:34:42.904Z,7.27
2023-01-09T14:38:02.779Z,7.11
2023-01-09T14:41:53.860Z,7.11
2023-01-09T14:44:56.828Z,7.08
2023-01-09T14:48:04.870Z,6.99
2023-01-09T14:51:13.109Z,6.93
2023-01-09T14:54:27.967Z,6.88
2023-01-09T14:57:34.212Z,6.88
2023-01-09T15:00:37.047Z,6.86
2023-01-09T15:03:52.412Z,6.83
2023-01-09T15:06:55.243Z,6.87
2023-01-09T15:10:02.081Z,6.76
2023-01-09T15:13:07.417Z,6.84
2023-01-09T15:16:18.803Z,6.78
2023-01-09T15:19:21.661Z,6.80
2023-01-09T15:22:35.018Z,6.76
2023-01-09T15:25:40.302Z,6.50
2023-01-09T15:28:44.168Z,6.58
2023-01-09T15:32:04.298Z,6.53
2023-01-09T15:35:14.052Z,6.48
2023-01-09T15:38:19.871Z,6.64
2023-01-09T15:41:46.373Z,6.66
2023-01-09T15:44:50.359Z,6.66
2023-01-09T15:47:53.525Z,6.45
2023-01-09T15:51:03.775Z,6.45
2023-01-09T15:54:06.493Z,6.43
2023-01-09T15:57:34.383Z,6.39
2023-01-09T16:00:39.664Z,6.28
2023-01-09T16:03:42.414Z,6.10
2023-01-09T16:06:48.339Z,6.09
2023-01-09T16:09:54.164Z,6.01
2023-01-09T16:12:57.057Z,5.97
2023-01-09T16:16:01.113Z,6.02
2023-01-09T16:19:03.958Z,5.92
2023-01-09T16:22:32.008Z,5.86
2023-01-09T16:25:35.429Z,5.81
2023-01-09T16:28:41.162Z,5.82
2023-01-09T16:31:43.985Z,5.85
2023-01-09T16:34:51.624Z,5.78
2023-01-09T16:37:54.571Z,5.68
2023-01-09T16:41:27.776Z,5.68
2023-01-09T16:44:30.667Z,5.64
2023-01-09T16:47:33.660Z,5.58
2023-01-09T16:50:36.374Z,5.56
2023-01-09T16:53:38.990Z,5.50
2023-01-09T16:56:43.599Z,5.51
2023-01-09T16:59:46.609Z,5.56
2023-01-09T17:02:49.688Z,5.57
2023-01-09T17:05:57.663Z,5.55
2023-01-09T17:09:00.325Z,5.56
2023-01-09T17:12:03.183Z,5.59
2023-01-09T17:15:06.348Z,5.65
2023-01-09T17:18:28.279Z,5.55
2023-01-09T17:21:31.840Z,5.53
2023-01-09T17:24:53.671Z,5.50
2023-01-09T17:28:14.713Z,5.57
2023-01-09T17:31:17.804Z,5.61
2023-01-09T17:34:21.008Z,5.58
2023-01-09T17:37:24.145Z,5.56
2023-01-09T17:40:28.896Z,5.54
2023-01-09T17:43:33.204Z,5.52
2023-01-09T17:46:38.842Z,5.48
2023-01-09T17:49:42.660Z,5.44
2023-01-09T17:52:46.062Z,5.38
2023-01-09T17:55:49.078Z,5.40
2023-01-09T17:58:51.901Z,5.44
2023-01-09T18:01:54.880Z,5.47
2023-01-09T18:04:58.052Z,5.52
2023-01-09T18:08:00.964Z,5.41
2023-01-09T18:11:08.009Z,5.47
2023-01-09T18:14:13.522Z,5.45
2023-01-09T18:17:16.633Z,5.49
2023-01-09T18:20:22.839Z,5.48
2023-01-09T18:23:26.918Z,5.51
2023-01-09T18:26:29.912Z,5.43
2023-01-09T18:29:33.050Z,5.43
2023-01-09T18:32:38.335Z,5.42
2023-01-09T18:35:42.634Z,5.49
2023-01-09T18:38:46.032Z,5.35
2023-01-09T18:41:48.798Z,5.39
2023-01-09T18:44:51.745Z,5.38
2023-01-09T18:47:54.477Z,5.34
2023-01-09T18:51:05.388Z,5.33
2023-01-09T18:54:08.699Z,5.30
2023-01-09T18:57:11.877Z,5.37
2023-01-09T19:00:15.481Z,5.30
2023-01-09T19:03:18.283Z,5.34
2023-01-09T19:06:21.225Z,5.32
2023-01-09T19:09:24.109Z,5.34
2023-01-09T19:12:26.833Z,5.26
2023-01-09T19:15:30.079Z,5.28
2023-01-09T19:18:35.984Z,5.17
2023-01-09T19:21:38.887Z,5.15
2023-01-09T19:24:41.953Z,5.16
2023-01-09T19:27:45.743Z,5.14
2023-01-09T19:30:56.390Z,5.18
2023-01-09T19:33:59.448Z,5.12
2023-01-09T19:37:02.463Z,5.14
2023-01-09T19:40:05.571Z,5.13
2023-01-09T19:43:08.301Z,5.18
2023-01-09T19:46:13.754Z,5.15
2023-01-09T19:49:17.047Z,5.13
2023-01-09T19:52:19.637Z,5.12
2023-01-09T19:55:22.791Z,5.07
2023-01-09T19:58:27.839Z,5.03
2023-01-09T20:01:36.681Z,5.06
2023-01-09T20:04:39.513Z,5.04
2023-01-09T20:07:42.267Z,5.07
2023-01-09T20:10:45.027Z,5.02
2023-01-09T20:13:48.040Z,5.04
2023-01-09T20:16:54.222Z,5.02
2023-01-09T20:19:57.185Z,4.98
2023-01-09T20:23:00.455Z,4.98
2023-01-09T20:26:03.808Z,4.99
2023-01-09T20:29:09.089Z,4.99
2023-01-09T20:32:12.110Z,4.99
2023-01-09T20:35:15.018Z,4.98
2023-01-09T20:38:17.669Z,5.02
2023-01-09T20:41:23.702Z,4.98
2023-01-09T20:44:26.303Z,5.02
2023-01-09T20:47:29.198Z,5.06
2023-01-09T20:50:33.315Z,4.99
2023-01-09T20:53:36.764Z,5.00
2023-01-09T20:56:39.725Z,5.01
2023-01-09T20:59:42.322Z,4.99
2023-01-09T21:02:45.061Z,5.01
2023-01-09T21:05:47.888Z,5.03
2023-01-09T21:08:53.202Z,5.01
2023-01-09T21:11:55.944Z,5.04
2023-01-09T21:15:02.548Z,5.05
2023-01-09T21:18:05.381Z,5.06
2023-01-09T21:21:13.721Z,5.01
2023-01-09T21:24:16.393Z,5.07
2023-01-09T21:27:19.243Z,5.05
2023-01-09T21:30:22.193Z,5.08
2023-01-09T21:33:24.849Z,5.03
2023-01-09T21:36:27.505Z,5.06
2023-01-09T21:39:30.505Z,5.06
2023-01-09T21:42:51.938Z,5.03
2023-01-09T21:46:13.260Z,5.05
2023-01-09T21:49:15.973Z,5.05
2023-01-09T21:52:18.828Z,5.04
2023-01-09T21:55:21.514Z,5.03
2023-01-09T21:58:24.093Z,5.05
2023-01-09T22:01:26.747Z,4.99
2023-01-09T22:04:29.833Z,5.04
2023-01-09T22:07:32.424Z,5.06
2023-01-09T22:10:35.221Z,5.10
2023-01-09T22:13:37.851Z,5.02
2023-01-09T22:16:41.689Z,5.01
2023-01-09T22:19:44.406Z,5.09
2023-01-09T22:22:48.797Z,5.07
2023-01-09T22:25:51.566Z,5.02
2023-01-09T22:28:55.940Z,5.05
2023-01-09T22:31:58.528Z,5.08
2023-01-09T22:35:01.130Z,5.03
2023-01-09T22:38:04.728Z,5.05
2023-01-09T22:41:07.502Z,5.03
2023-01-09T22:44:11.594Z,5.07
2023-01-09T22:47:17.088Z,5.05
2023-01-09T22:50:20.104Z,5.09
2023-01-09T22:53:22.657Z,5.09
2023-01-09T22:56:25.263Z,5.12
2023-01-09T22:59:27.770Z,5.11
2023-01-09T23:02:30.402Z,5.13
2023-01-09T23:05:33.001Z,5.07
2023-01-09T23:08:35.742Z,5.15
2023-01-09T23:11:57.150Z,5.09
2023-01-09T23:15:00.420Z,5.07
2023-01-09T23:18:03.098Z,5.07
2023-01-09T23:21:05.630Z,5.08
2023-01-09T23:24:08.625Z,5.10
2023-01-09T23:27:11.206Z,5.02
2023-01-09T23:30:14.119Z,5.05
2023-01-09T23:33:21.376Z,4.97
2023-01-09T23:36:23.932Z,4.96
2023-01-09T23:39:26.480Z,4.90
2023-01-09T23:42:47.716Z,4.85
2023-01-09T23:45:51.468Z,4.82
2023-01-09T23:48:54.013Z,4.80
2023-01-09T23:51:56.713Z,4.79
2023-01-09T23:54:59.397Z,4.79
2023-01-09T23:58:01.910Z,4.71
